Time;durP1;ratioP1;P1;durP2;ratioP2;P2;SDS_P1;SDS_P2;PMS_P1;PMS_P2;Temp;Humidity;BMP_temperature;BMP_pressure;BME280_temperature;BME280_humidity;BME280_pressure;Samples;Min_cycle;Max_cycle;Signal;HPM_P1;HPM_P2
2022/06/26 04:00:50;;;;;;;2.72;2.05;;;17.20;99.90;;;;;;5855841;22;20043;-74
2022/06/26 04:03:17;;;;;;;2.95;2.20;;;17.20;99.90;;;;;;5016926;28;20050;-74
2022/06/26 04:05:43;;;;;;;2.70;2.10;;;17.20;99.90;;;;;;5015172;28;20073;-74
2022/06/26 04:08:09;;;;;;;2.42;2.00;;;17.20;99.90;;;;;;5016436;28;20136;-74
2022/06/26 04:10:35;;;;;;;2.40;2.20;;;17.20;99.90;;;;;;5016510;28;20039;-74
2022/06/26 04:13:03;;;;;;;3.13;2.10;;;17.30;99.90;;;;;;5038586;23;20042;-74
2022/06/26 04:15:31;;;;;;;2.60;2.10;;;17.30;99.90;;;;;;5014862;28;20546;-74
2022/06/26 04:17:57;;;;;;;3.08;2.22;;;17.30;99.90;;;;;;5014309;28;20034;-74
2022/06/26 04:20:23;;;;;;;2.33;2.00;;;17.30;99.90;;;;;;5016588;28;20030;-74
2022/06/26 04:22:59;;;;;;;2.25;1.90;;;17.30;99.90;;;;;;5014474;28;20121;-74
2022/06/26 04:25:27;;;;;;;2.33;2.13;;;17.30;99.90;;;;;;5016064;28;20042;-74
2022/06/26 04:27:53;;;;;;;2.22;2.03;;;17.30;99.90;;;;;;5014460;28;20084;-74
2022/06/26 04:30:19;;;;;;;8.15;2.35;;;17.40;99.90;;;;;;5015940;28;20034;-74
2022/06/26 04:32:44;;;;;;;2.67;1.95;;;17.50;99.90;;;;;;5016088;28;20146;-74
2022/06/26 04:35:10;;;;;;;2.50;2.30;;;17.60;99.90;;;;;;5016185;28;20473;-74
2022/06/26 04:37:37;;;;;;;4.82;2.13;;;17.80;99.90;;;;;;5015836;28;20034;-74
2022/06/26 04:40:04;;;;;;;2.28;1.73;;;18.00;99.90;;;;;;5015912;28;20034;-74
2022/06/26 04:42:29;;;;;;;2.33;1.70;;;18.20;99.90;;;;;;5016043;28;20042;-74
2022/06/26 04:44:55;;;;;;;2.97;1.88;;;18.40;99.90;;;;;;5014377;28;20030;-74
2022/06/26 04:47:20;;;;;;;3.22;2.00;;;18.70;99.90;;;;;;5015303;28;20053;-74
2022/06/26 04:49:47;;;;;;;2.05;1.52;;;19.00;99.90;;;;;;5015755;28;20491;-74
2022/06/26 04:52:13;;;;;;;1.88;1.60;;;19.20;99.90;;;;;;5014402;28;20474;-74
2022/06/26 04:54:39;;;;;;;1.58;1.48;;;19.30;99.90;;;;;;5015290;28;20047;-74
2022/06/26 04:57:05;;;;;;;2.47;1.35;;;19.50;99.90;;;;;;5015632;28;20037;-74
2022/06/26 04:59:30;;;;;;;1.48;1.08;;;19.60;99.90;;;;;;5015499;28;20034;-74
2022/06/26 05:01:56;;;;;;;1.30;1.20;;;19.60;99.90;;;;;;5014323;28;20050;-74
2022/06/26 05:04:21;;;;;;;1.77;0.90;;;19.70;99.90;;;;;;5015450;28;20042;-74
2022/06/26 05:06:47;;;;;;;2.70;1.20;;;19.80;99.90;;;;;;5014361;28;20089;-74
2022/06/26 05:09:12;;;;;;;1.55;0.90;;;19.90;99.90;;;;;;5015362;28;20038;-75
2022/06/26 05:11:40;;;;;;;2.65;1.38;;;20.10;99.90;;;;;;5015801;28;20027;-74
2022/06/26 05:14:05;;;;;;;2.28;1.00;;;20.30;99.90;;;;;;5014984;28;20073;-74
2022/06/26 05:16:31;;;;;;;1.10;1.00;;;20.40;99.90;;;;;;5014984;28;20129;-74
2022/06/26 05:18:56;;;;;;;1.20;1.10;;;20.50;99.90;;;;;;5015446;28;20451;-74
2022/06/26 05:21:22;;;;;;;1.00;0.90;;;20.50;99.90;;;;;;5015379;28;20527;-74
2022/06/26 05:23:47;;;;;;;1.75;1.05;;;20.60;99.90;;;;;;5014736;28;20488;-75
2022/06/26 05:26:13;;;;;;;1.42;1.00;;;20.80;99.90;;;;;;5014962;28;20363;-74
2022/06/26 05:28:38;;;;;;;1.02;0.93;;;20.90;99.90;;;;;;5015464;28;20030;-74
2022/06/26 05:31:05;;;;;;;1.05;1.00;;;21.20;99.90;;;;;;5015398;28;20031;-74
2022/06/26 05:33:30;;;;;;;1.45;0.90;;;21.30;99.90;;;;;;5015095;28;20053;-74
2022/06/26 05:35:56;;;;;;;1.35;1.00;;;21.50;99.90;;;;;;5014539;28;20495;-74
2022/06/26 05:38:21;;;;;;;3.40;1.00;;;21.50;99.90;;;;;;5014985;28;20042;-74
2022/06/26 05:40:47;;;;;;;0.82;0.80;;;21.80;99.90;;;;;;5014907;28;20034;-74
2022/06/26 05:43:12;;;;;;;1.20;0.93;;;21.80;99.90;;;;;;5014779;28;20038;-74
2022/06/26 05:45:38;;;;;;;1.48;0.90;;;21.90;99.90;;;;;;5013452;28;20165;-74
2022/06/26 05:48:04;;;;;;;2.80;0.85;;;22.00;99.90;;;;;;5014893;28;20045;-75
2022/06/26 05:50:29;;;;;;;1.30;0.82;;;21.90;99.90;;;;;;5015075;28;20050;-75
2022/06/26 05:52:55;;;;;;;1.20;0.90;;;22.00;99.90;;;;;;5014270;28;20037;-75
2022/06/26 05:55:21;;;;;;;2.22;1.00;;;21.90;99.90;;;;;;5014962;28;20034;-74
2022/06/26 05:57:46;;;;;;;1.13;1.00;;;21.80;99.90;;;;;;5014460;28;20480;-75
2022/06/26 06:00:13;;;;;;;1.10;1.00;;;21.60;99.90;;;;;;5013333;28;20110;-74
2022/06/26 06:02:38;;;;;;;1.42;0.90;;;21.50;99.90;;;;;;5014893;28;20026;-74
2022/06/26 06:05:04;;;;;;;1.52;1.00;;;21.60;99.90;;;;;;5014454;28;20034;-75
2022/06/26 06:07:30;;;;;;;3.83;0.90;;;21.60;99.90;;;;;;5013906;28;20027;-75
2022/06/26 06:09:55;;;;;;;1.10;0.80;;;21.80;99.90;;;;;;5014850;28;20419;-75
2022/06/26 06:12:23;;;;;;;2.35;1.20;;;21.90;99.90;;;;;;5014709;28;20034;-74
2022/06/26 06:14:49;;;;;;;1.20;1.00;;;22.00;99.90;;;;;;5014161;28;20444;-75
2022/06/26 06:19:59;;;;;;;2.42;1.65;;;22.20;99.90;;;;;;5021384;28;20167;-75
2022/06/26 06:22:24;;;;;;;1.33;1.10;;;22.00;99.90;;;;;;5021417;28;20158;-75
2022/06/26 06:24:50;;;;;;;0.82;0.82;;;22.00;99.90;;;;;;5020763;28;20038;-75
2022/06/26 06:27:15;;;;;;;1.38;0.82;;;21.90;99.90;;;;;;5020580;28;20030;-74
2022/06/26 06:29:41;;;;;;;1.40;1.00;;;21.90;99.90;;;;;;5021032;28;20034;-75
2022/06/26 06:32:07;;;;;;;2.28;1.00;;;21.90;99.90;;;;;;5019956;28;20175;-75
2022/06/26 06:34:32;;;;;;;2.58;1.00;;;21.70;99.90;;;;;;5020350;28;20093;-74
2022/06/26 06:36:58;;;;;;;3.33;0.90;;;21.60;99.90;;;;;;5021041;28;20038;-75
2022/06/26 06:39:23;;;;;;;1.50;1.17;;;21.40;99.90;;;;;;5020944;28;20041;-75
2022/06/26 06:41:50;;;;;;;1.70;0.90;;;21.20;99.90;;;;;;5019327;28;20034;-75
2022/06/26 06:44:15;;;;;;;2.78;1.02;;;21.10;99.90;;;;;;5019191;28;20034;-74
2022/06/26 06:46:41;;;;;;;1.27;0.90;;;20.90;99.90;;;;;;5019223;28;20038;-75
2022/06/26 06:49:06;;;;;;;1.13;1.02;;;20.80;99.90;;;;;;5019216;28;20085;-74
2022/06/26 06:51:32;;;;;;;1.65;0.88;;;20.80;99.90;;;;;;5019114;28;20035;-75
2022/06/26 06:53:57;;;;;;;0.80;0.80;;;20.70;99.90;;;;;;5020818;28;20049;-74
2022/06/26 06:56:23;;;;;;;1.00;0.80;;;20.90;99.90;;;;;;5020417;28;20476;-75
2022/06/26 06:58:48;;;;;;;0.88;0.80;;;21.00;99.90;;;;;;5020665;28;20097;-74
2022/06/26 07:01:14;;;;;;;1.77;1.00;;;21.10;99.90;;;;;;5020676;28;20039;-75
2022/06/26 07:03:40;;;;;;;0.73;0.68;;;21.50;99.90;;;;;;5020226;28;20122;-74
2022/06/26 07:06:05;;;;;;;1.33;0.88;;;21.70;99.90;;;;;;5020037;28;20113;-75
2022/06/26 07:08:31;;;;;;;1.83;0.90;;;21.70;99.90;;;;;;5020642;28;20038;-75
2022/06/26 07:10:56;;;;;;;2.20;1.00;;;21.80;99.90;;;;;;5020467;28;20452;-75
2022/06/26 07:13:22;;;;;;;1.13;1.00;;;21.80;99.90;;;;;;5019776;28;20563;-75
2022/06/26 07:15:47;;;;;;;1.50;1.00;;;21.70;99.90;;;;;;5020373;28;20061;-74
2022/06/26 07:18:13;;;;;;;1.33;1.00;;;21.80;99.90;;;;;;5020456;28;20041;-75
2022/06/26 07:20:39;;;;;;;1.83;0.85;;;21.70;99.90;;;;;;5019213;28;20038;-75
2022/06/26 07:23:04;;;;;;;1.13;0.93;;;21.50;99.90;;;;;;5020163;28;20540;-74
2022/06/26 07:25:30;;;;;;;1.95;1.40;;;21.50;99.90;;;;;;5018839;28;20026;-74
2022/06/26 07:27:55;;;;;;;1.38;1.00;;;21.70;99.90;;;;;;5020373;28;20198;-74
2022/06/26 07:30:21;;;;;;;1.88;1.10;;;21.90;99.90;;;;;;5016275;28;20034;-74
2022/06/26 07:32:46;;;;;;;2.15;0.90;;;22.10;99.90;;;;;;5017034;28;20041;-74
2022/06/26 07:35:12;;;;;;;1.05;0.90;;;22.10;99.90;;;;;;5015471;28;20432;-74
2022/06/26 07:37:38;;;;;;;1.20;1.10;;;22.30;99.90;;;;;;5016985;28;20570;-74
2022/06/26 07:40:05;;;;;;;0.90;0.90;;;22.50;99.90;;;;;;5016999;28;20447;-74
2022/06/26 07:42:30;;;;;;;3.25;1.05;;;22.60;99.90;;;;;;5016832;28;20031;-74
2022/06/26 07:44:56;;;;;;;1.52;0.98;;;22.60;99.00;;;;;;5016592;28;20042;-74
2022/06/26 07:47:21;;;;;;;1.17;0.82;;;22.80;98.80;;;;;;5015032;28;20033;-75
2022/06/26 07:49:47;;;;;;;1.00;0.90;;;23.10;98.60;;;;;;5016701;28;20552;-74
2022/06/26 07:52:12;;;;;;;1.00;1.00;;;23.20;98.60;;;;;;5016609;28;20535;-74
2022/06/26 07:54:38;;;;;;;1.58;1.48;;;23.20;99.00;;;;;;5016586;28;20088;-74
2022/06/26 07:57:04;;;;;;;1.75;1.10;;;23.40;99.20;;;;;;5015058;28;20106;-74
2022/06/26 07:59:29;;;;;;;1.20;1.00;;;23.30;98.70;;;;;;5016614;28;20389;-74
2022/06/26 08:01:55;;;;;;;1.83;1.10;;;23.50;97.00;;;;;;5016742;28;20034;-74
2022/06/26 08:04:20;;;;;;;1.48;1.20;;;23.70;97.00;;;;;;5016188;28;20030;-74
2022/06/26 08:06:46;;;;;;;3.08;1.05;;;24.00;96.90;;;;;;5016427;28;20019;-74
2022/06/26 08:09:11;;;;;;;1.23;0.90;;;24.00;97.30;;;;;;5014933;28;20038;-74
2022/06/26 08:11:37;;;;;;;1.30;1.00;;;24.00;97.30;;;;;;5016613;28;20038;-75
2022/06/26 08:14:02;;;;;;;1.20;0.85;;;24.20;96.70;;;;;;5015585;28;20046;-75
2022/06/26 08:16:28;;;;;;;0.77;0.77;;;24.40;96.80;;;;;;5016051;28;20089;-74
2022/06/26 08:18:54;;;;;;;1.08;0.98;;;24.30;96.40;;;;;;5014922;28;20085;-74
2022/06/26 08:24:04;;;;;;;2.08;0.90;;;24.30;96.80;;;;;;5016170;28;20049;-75
2022/06/26 08:26:29;;;;;;;1.92;1.00;;;24.30;96.50;;;;;;5015704;28;20030;-75
2022/06/26 08:28:55;;;;;;;2.20;1.13;;;24.40;96.90;;;;;;5014697;28;20436;-75
2022/06/26 08:31:20;;;;;;;1.58;0.90;;;24.70;97.80;;;;;;5016193;28;20392;-74
2022/06/26 08:33:46;;;;;;;1.80;1.00;;;24.70;96.00;;;;;;5016004;28;20104;-75
2022/06/26 08:36:11;;;;;;;1.95;0.98;;;24.60;95.90;;;;;;5016029;28;20173;-75
2022/06/26 08:38:37;;;;;;;1.15;0.80;;;24.30;96.00;;;;;;5016182;28;20034;-75
2022/06/26 08:41:03;;;;;;;1.20;1.10;;;24.30;96.00;;;;;;5015934;28;20030;-75
2022/06/26 08:43:29;;;;;;;1.20;1.10;;;24.80;95.50;;;;;;5015846;28;20508;-75
2022/06/26 08:45:54;;;;;;;1.98;1.08;;;25.20;94.60;;;;;;5015639;28;20042;-75
2022/06/26 08:48:24;;;;;;;1.83;0.90;;;25.40;94.00;;;;;;5014249;28;20044;-75
2022/06/26 08:50:50;;;;;;;0.98;0.98;;;25.60;93.10;;;;;;5015606;28;20121;-75
2022/06/26 08:53:16;;;;;;;1.50;0.90;;;25.80;92.40;;;;;;5015626;28;20141;-75
2022/06/26 08:55:42;;;;;;;1.65;1.38;;;25.90;91.90;;;;;;5015947;28;20054;-75
2022/06/26 08:58:08;;;;;;;1.60;1.50;;;26.10;91.80;;;;;;5015411;28;20045;-75
2022/06/26 09:00:33;;;;;;;1.25;0.93;;;26.20;91.30;;;;;;5015535;28;20037;-75
2022/06/26 09:02:59;;;;;;;1.75;1.25;;;26.30;90.70;;;;;;5015275;28;20073;-75
2022/06/26 09:05:25;;;;;;;1.40;1.10;;;26.20;90.60;;;;;;5015710;28;20066;-75
2022/06/26 09:07:52;;;;;;;2.55;1.27;;;26.50;90.90;;;;;;5015472;28;20080;-75
2022/06/26 09:10:22;;;;;;;1.38;1.00;;;26.40;91.80;;;;;;5015502;28;20405;-75
2022/06/26 09:12:52;;;;;;;1.00;0.90;;;26.60;91.40;;;;;;5015184;28;20046;-75
2022/06/26 09:15:19;;;;;;;1.30;1.20;;;26.70;91.20;;;;;;5015173;28;20066;-75
2022/06/26 09:17:59;;;;;;;1.50;1.10;;;26.80;90.80;;;;;;5015197;28;20035;-75
2022/06/26 09:20:25;;;;;;;1.55;1.15;;;26.70;90.90;;;;;;5015477;28;20045;-75
2022/06/26 09:22:53;;;;;;;1.25;1.10;;;26.80;91.70;;;;;;5015143;28;20384;-75
2022/06/26 09:25:18;;;;;;;1.20;1.05;;;26.80;91.10;;;;;;5015249;28;20034;-75
2022/06/26 09:27:44;;;;;;;1.35;1.10;;;26.90;90.10;;;;;;5015130;28;20381;-75
2022/06/26 09:30:10;;;;;;;1.92;0.98;;;27.00;90.30;;;;;;5013825;28;20060;-75
2022/06/26 09:32:35;;;;;;;1.67;1.20;;;27.00;92.10;;;;;;5013607;28;20038;-75
2022/06/26 09:35:01;;;;;;;1.25;0.90;;;27.20;89.00;;;;;;5014739;28;23140;-75
2022/06/26 09:37:34;;;;;;;1.20;1.10;;;27.20;86.30;;;;;;5014873;28;20042;-75
2022/06/26 09:40:01;;;;;;;1.10;0.98;;;26.80;87.20;;;;;;5014806;28;20030;-75
2022/06/26 09:42:27;;;;;;;1.02;0.93;;;26.80;88.20;;;;;;5015126;28;20527;-75
2022/06/26 09:44:54;;;;;;;1.40;1.02;;;27.10;89.50;;;;;;5015072;28;20049;-75
2022/06/26 09:47:23;;;;;;;1.02;0.93;;;27.40;87.80;;;;;;5014713;28;20065;-75
2022/06/26 09:49:52;;;;;;;1.20;1.08;;;27.60;87.70;;;;;;5014851;28;20089;-75
2022/06/26 09:52:19;;;;;;;2.00;1.42;;;27.70;84.20;;;;;;5012907;28;20034;-75
2022/06/26 09:54:46;;;;;;;1.33;0.90;;;27.70;86.40;;;;;;5012845;28;20038;-75
2022/06/26 09:57:13;;;;;;;1.25;1.10;;;27.80;85.60;;;;;;5014693;28;20031;-75
2022/06/26 09:59:40;;;;;;;1.45;1.25;;;27.90;90.80;;;;;;5014624;28;20042;-75
2022/06/26 10:07:39;;;;;;;2.35;1.17;;;28.00;84.40;;;;;;5014749;28;20031;-75
2022/06/26 10:10:05;;;;;;;1.73;1.17;;;27.90;85.30;;;;;;5013249;28;20034;-75
2022/06/26 10:12:33;;;;;;;1.15;1.05;;;28.00;84.60;;;;;;5014502;28;20101;-75
2022/06/26 10:15:00;;;;;;;1.10;1.00;;;28.20;82.00;;;;;;5014967;28;20045;-75
2022/06/26 10:17:54;;;;;;;2.15;1.00;;;28.10;83.80;;;;;;5014085;28;20509;-75
2022/06/26 10:20:23;;;;;;;1.27;1.00;;;28.20;82.80;;;;;;5014634;28;20174;-75
2022/06/26 10:22:48;;;;;;;1.20;1.10;;;28.30;81.30;;;;;;5014488;28;20134;-75
2022/06/26 10:25:25;;;;;;;1.42;1.20;;;28.40;83.00;;;;;;5014373;28;20456;-75
2022/06/26 10:27:51;;;;;;;1.20;1.08;;;28.60;80.00;;;;;;5014213;28;20043;-75
2022/06/26 10:30:29;;;;;;;2.75;1.08;;;28.80;78.20;;;;;;5012928;28;20030;-75
2022/06/26 10:33:08;;;;;;;1.20;1.10;;;28.70;78.20;;;;;;5014370;28;20033;-75
2022/06/26 10:35:39;;;;;;;2.65;1.20;;;28.90;82.50;;;;;;5014356;28;20073;-75
2022/06/26 10:38:18;;;;;;;2.33;1.30;;;29.30;81.40;;;;;;5014021;28;20030;-75
2022/06/26 10:43:43;;;;;;;1.30;1.20;;;29.50;75.30;;;;;;5014209;28;20031;-75
2022/06/26 10:46:11;;;;;;;1.30;1.20;;;29.60;76.80;;;;;;5014215;28;20069;-75
2022/06/26 10:48:37;;;;;;;1.75;1.20;;;29.70;79.30;;;;;;5014039;28;20041;-75
2022/06/26 10:51:02;;;;;;;1.63;0.93;;;29.60;80.40;;;;;;5013809;28;20482;-75
2022/06/26 10:53:37;;;;;;;1.33;1.17;;;29.40;79.20;;;;;;5013822;28;20114;-75
2022/06/26 10:56:07;;;;;;;1.88;1.20;;;29.40;75.70;;;;;;5013975;28;20456;-75
2022/06/26 10:58:36;;;;;;;1.73;1.08;;;29.20;76.30;;;;;;5013796;28;20045;-75
2022/06/26 11:01:04;;;;;;;1.77;1.10;;;28.80;83.40;;;;;;5013491;28;20113;-75
2022/06/26 11:03:30;;;;;;;1.15;1.00;;;28.90;78.20;;;;;;5013538;28;20117;-75
2022/06/26 11:05:56;;;;;;;1.40;1.20;;;29.00;80.50;;;;;;5016815;28;20085;-75
2022/06/26 11:08:27;;;;;;;2.00;1.20;;;29.30;78.20;;;;;;5017462;28;20073;-75
2022/06/26 11:10:57;;;;;;;3.05;1.05;;;29.60;76.40;;;;;;5015626;28;20038;-75
2022/06/26 11:13:23;;;;;;;1.67;1.17;;;29.70;84.10;;;;;;5016642;28;20555;-75
2022/06/26 11:15:49;;;;;;;3.58;1.08;;;30.20;78.80;;;;;;5017213;28;20033;-75
2022/06/26 11:18:15;;;;;;;1.40;1.00;;;30.70;74.10;;;;;;5017036;28;20064;-75
2022/06/26 11:20:46;;;;;;;2.53;1.10;;;30.70;74.20;;;;;;5017270;28;20081;-75
2022/06/26 11:23:20;;;;;;;1.38;1.10;;;30.70;70.90;;;;;;5015503;28;20116;-75
2022/06/26 11:25:47;;;;;;;1.55;1.08;;;30.70;72.50;;;;;;5017219;28;20045;-75
2022/06/26 11:28:14;;;;;;;0.90;0.90;;;30.70;73.00;;;;;;5017049;28;20026;-75
2022/06/26 11:30:41;;;;;;;2.80;1.10;;;31.00;71.30;;;;;;5015623;28;20040;-75
2022/06/26 11:33:08;;;;;;;1.48;1.10;;;31.10;75.40;;;;;;5016929;28;20082;-75
2022/06/26 11:35:34;;;;;;;0.90;0.85;;;31.10;74.20;;;;;;5017160;28;20110;-75
2022/06/26 11:38:09;;;;;;;0.90;0.90;;;30.90;72.70;;;;;;5015149;28;20038;-75
2022/06/26 11:40:35;;;;;;;1.00;0.90;;;31.20;70.90;;;;;;5016943;28;20030;-75
2022/06/26 11:43:01;;;;;;;1.10;1.00;;;31.80;73.20;;;;;;5016841;28;20041;-75
2022/06/26 11:45:31;;;;;;;1.45;1.20;;;32.10;70.60;;;;;;5016924;28;20058;-75
2022/06/26 11:47:56;;;;;;;1.52;1.00;;;31.60;70.70;;;;;;5016553;28;20034;-75
2022/06/26 11:50:27;;;;;;;1.10;1.00;;;31.90;68.20;;;;;;5016634;28;20484;-75
2022/06/26 11:52:54;;;;;;;2.78;1.02;;;31.80;68.90;;;;;;5017029;28;20030;-75
2022/06/26 11:55:19;;;;;;;2.53;1.00;;;31.70;69.70;;;;;;5016767;28;20042;-75
2022/06/26 11:57:46;;;;;;;1.75;1.13;;;32.20;68.70;;;;;;5016239;28;20038;-75
2022/06/26 12:00:12;;;;;;;2.45;1.00;;;32.40;64.30;;;;;;5016374;28;20061;-75
2022/06/26 12:02:43;;;;;;;2.10;0.98;;;32.20;64.00;;;;;;5016012;28;20026;-75
2022/06/26 12:05:10;;;;;;;1.58;1.00;;;32.30;63.40;;;;;;5014908;28;20034;-75
2022/06/26 12:07:46;;;;;;;2.67;1.30;;;32.30;65.80;;;;;;5016411;28;20105;-75
2022/06/26 12:10:12;;;;;;;1.58;1.42;;;32.70;64.60;;;;;;5014968;28;20038;-75
2022/06/26 12:12:51;;;;;;;1.67;1.10;;;33.00;61.20;;;;;;5016299;28;20546;-76
2022/06/26 12:15:17;;;;;;;1.63;1.00;;;33.00;70.00;;;;;;5015945;28;20586;-76
2022/06/26 12:17:50;;;;;;;1.13;0.93;;;32.60;66.40;;;;;;5016183;28;20034;-76
2022/06/26 12:20:15;;;;;;;1.15;1.02;;;32.60;65.60;;;;;;5015554;28;20041;-76
2022/06/26 12:22:48;;;;;;;1.92;1.00;;;32.20;63.20;;;;;;5016967;28;20057;-76
2022/06/26 12:25:26;;;;;;;1.52;1.10;;;32.30;71.00;;;;;;5015632;28;20073;-75
2022/06/26 12:27:51;;;;;;;1.17;0.90;;;32.50;64.10;;;;;;5016454;28;20070;-75
2022/06/26 12:30:22;;;;;;;1.17;1.00;;;32.70;65.50;;;;;;5016397;28;20050;-75
2022/06/26 12:32:48;;;;;;;3.67;0.95;;;32.70;62.30;;;;;;5015071;28;20035;-75
2022/06/26 12:35:14;;;;;;;1.35;0.90;;;32.70;63.80;;;;;;5016170;28;20045;-75
2022/06/26 12:37:39;;;;;;;1.42;1.00;;;33.00;61.20;;;;;;5015560;28;20042;-75
2022/06/26 12:40:06;;;;;;;2.50;0.85;;;33.10;64.20;;;;;;5015979;28;20034;-76
2022/06/26 12:42:32;;;;;;;0.90;0.90;;;33.20;62.90;;;;;;5014401;28;20479;-75
2022/06/26 12:44:58;;;;;;;1.98;1.20;;;33.00;58.90;;;;;;5015974;28;20041;-76
2022/06/26 12:47:23;;;;;;;1.40;1.20;;;32.70;61.10;;;;;;5014343;28;20092;-75
2022/06/26 12:49:49;;;;;;;2.08;1.25;;;33.30;59.80;;;;;;5014425;28;20041;-76
2022/06/26 12:52:15;;;;;;;0.82;0.80;;;33.80;63.60;;;;;;5014369;28;20037;-75
2022/06/26 12:54:41;;;;;;;1.05;1.00;;;34.40;59.00;;;;;;5015386;28;20038;-75
2022/06/26 12:57:06;;;;;;;2.35;1.02;;;34.60;62.90;;;;;;5015421;28;20030;-76
2022/06/26 12:59:32;;;;;;;2.35;0.80;;;35.00;59.20;;;;;;5015764;28;20038;-76
2022/06/26 13:01:58;;;;;;;1.10;1.00;;;34.20;58.60;;;;;;5014276;28;20058;-76
2022/06/26 13:04:23;;;;;;;1.08;1.00;;;34.00;59.60;;;;;;5015631;28;20052;-76
2022/06/26 13:06:49;;;;;;;1.05;0.95;;;33.90;61.40;;;;;;5013829;28;20030;-76
2022/06/26 13:09:15;;;;;;;0.95;0.90;;;34.00;60.10;;;;;;5015707;28;20045;-76
2022/06/26 13:11:42;;;;;;;1.05;0.95;;;34.40;59.60;;;;;;5015310;28;20034;-76
2022/06/26 13:14:08;;;;;;;2.03;1.00;;;34.30;56.40;;;;;;5014287;28;20050;-75
2022/06/26 13:16:35;;;;;;;1.48;0.90;;;34.40;56.70;;;;;;5013980;28;20041;-76
2022/06/26 13:19:01;;;;;;;1.55;0.80;;;34.40;58.10;;;;;;5014109;28;20038;-76
2022/06/26 13:21:26;;;;;;;1.45;1.00;;;34.70;57.00;;;;;;5013849;28;20031;-75
2022/06/26 13:23:52;;;;;;;1.85;1.10;;;35.40;57.90;;;;;;5013677;28;20492;-75
2022/06/26 13:26:17;;;;;;;1.17;1.08;;;35.40;55.60;;;;;;5013424;28;20050;-76
2022/06/26 13:28:43;;;;;;;1.17;0.90;;;35.90;57.10;;;;;;5013323;28;20030;-76
2022/06/26 13:31:08;;;;;;;1.00;1.00;;;36.00;55.90;;;;;;5014097;28;20046;-76
2022/06/26 13:33:34;;;;;;;0.98;0.90;;;36.40;55.90;;;;;;5013450;28;20042;-76
2022/06/26 13:35:59;;;;;;;1.73;1.00;;;35.70;59.50;;;;;;5013532;28;20533;-76
2022/06/26 13:38:25;;;;;;;1.20;1.10;;;35.50;57.60;;;;;;5013569;28;20381;-76
2022/06/26 13:40:51;;;;;;;1.13;1.00;;;36.10;54.80;;;;;;5013804;28;20109;-76
2022/06/26 13:43:17;;;;;;;1.15;0.90;;;36.00;57.50;;;;;;5013722;28;20030;-76
2022/06/26 13:45:42;;;;;;;2.03;0.95;;;35.70;57.20;;;;;;5012153;28;20034;-76
2022/06/26 13:48:08;;;;;;;2.45;1.00;;;36.20;54.50;;;;;;5013310;28;20050;-76
2022/06/26 13:50:34;;;;;;;1.42;0.90;;;37.30;52.40;;;;;;5013723;28;20030;-76
2022/06/26 13:52:59;;;;;;;1.13;1.00;;;38.00;52.10;;;;;;5013325;28;20041;-76
2022/06/26 13:55:25;;;;;;;1.40;1.20;;;38.00;51.30;;;;;;5013577;28;20087;-76
2022/06/26 13:57:50;;;;;;;1.85;1.00;;;38.20;53.30;;;;;;5013477;28;20369;-76
2022/06/26 14:00:16;;;;;;;1.52;0.90;;;38.10;50.30;;;;;;5013587;28;20101;-76
2022/06/26 14:02:42;;;;;;;1.65;1.15;;;38.60;50.10;;;;;;5013155;28;20599;-77
2022/06/26 14:05:08;;;;;;;1.63;1.52;;;38.70;51.00;;;;;;5011678;28;20129;-77
2022/06/26 14:07:34;;;;;;;1.38;1.00;;;39.20;53.10;;;;;;5012795;28;20488;-75
2022/06/26 14:09:59;;;;;;;1.38;1.15;;;39.30;52.20;;;;;;5013104;28;20061;-75
2022/06/26 14:12:25;;;;;;;1.73;1.05;;;39.60;49.80;;;;;;5013461;28;20045;-75
2022/06/26 14:14:52;;;;;;;1.83;1.25;;;39.80;51.00;;;;;;4976986;28;1052603;-75
2022/06/26 14:17:17;;;;;;;1.20;1.10;;;40.40;48.40;;;;;;5014731;28;20508;-75
2022/06/26 14:19:43;;;;;;;0.98;0.98;;;40.00;48.00;;;;;;5014433;28;20125;-75
2022/06/26 14:27:37;;;;;;;2.40;1.40;;;41.70;45.70;;;;;;5014515;28;20819;-75
2022/06/26 14:30:04;;;;;;;2.15;1.20;;;41.20;47.20;;;;;;5014228;28;20113;-75
2022/06/26 14:32:30;;;;;;;1.10;1.00;;;40.10;49.50;;;;;;5012921;28;20837;-75
2022/06/26 14:34:56;;;;;;;1.52;1.30;;;39.50;47.40;;;;;;5014288;28;20048;-75
2022/06/26 14:37:21;;;;;;;1.50;1.40;;;40.30;50.10;;;;;;5013820;28;20042;-75
2022/06/26 14:39:47;;;;;;;1.20;1.10;;;40.90;47.20;;;;;;5017109;28;20041;-75
2022/06/26 14:42:13;;;;;;;3.40;1.20;;;40.40;46.50;;;;;;5016435;28;20038;-75
2022/06/26 14:44:38;;;;;;;1.73;1.48;;;40.50;46.80;;;;;;5018026;28;20125;-75
2022/06/26 14:47:04;;;;;;;1.58;1.20;;;41.50;47.70;;;;;;5017384;28;20066;-75
2022/06/26 14:49:30;;;;;;;1.90;1.58;;;42.30;44.20;;;;;;5017854;28;20038;-75
2022/06/26 14:51:55;;;;;;;1.73;1.63;;;42.10;43.40;;;;;;5017814;28;20037;-75
2022/06/26 14:54:21;;;;;;;1.33;1.23;;;42.60;43.20;;;;;;5017995;28;20046;-75
2022/06/26 14:56:47;;;;;;;1.45;1.10;;;39.90;47.90;;;;;;5017904;28;20164;-75
2022/06/26 14:59:12;;;;;;;1.13;1.10;;;39.00;48.40;;;;;;5017985;28;20046;-75
2022/06/26 15:01:38;;;;;;;2.40;1.10;;;38.00;48.70;;;;;;5017584;28;20042;-75
2022/06/26 15:04:04;;;;;;;1.10;1.00;;;37.80;50.90;;;;;;5017166;28;20403;-74
2022/06/26 15:06:29;;;;;;;0.98;0.98;;;38.70;45.60;;;;;;5017261;28;20027;-74
2022/06/26 15:08:55;;;;;;;1.48;1.30;;;38.90;51.20;;;;;;5017509;28;20034;-75
2022/06/26 15:11:22;;;;;;;1.20;1.10;;;40.00;48.60;;;;;;5017914;28;20472;-75
2022/06/26 15:13:47;;;;;;;1.40;1.30;;;40.50;45.80;;;;;;5019000;28;20042;-76
2022/06/26 15:16:13;;;;;;;1.73;1.50;;;40.90;44.30;;;;;;5017156;28;20030;-77
2022/06/26 15:18:38;;;;;;;1.30;1.20;;;41.20;46.00;;;;;;5017515;28;20034;-77
2022/06/26 15:21:05;;;;;;;1.50;1.40;;;41.20;44.00;;;;;;5017346;28;20034;-77
2022/06/26 15:23:31;;;;;;;1.58;1.33;;;41.80;48.30;;;;;;5017255;28;20045;-77
2022/06/26 15:25:57;;;;;;;1.40;1.30;;;42.50;43.60;;;;;;5015357;28;20538;-76
2022/06/26 15:28:23;;;;;;;1.40;1.30;;;43.30;43.50;;;;;;5017195;28;20031;-75
2022/06/26 15:30:50;;;;;;;1.55;1.45;;;44.40;39.80;;;;;;5017157;28;20098;-75
2022/06/26 15:33:15;;;;;;;1.70;1.60;;;44.80;40.30;;;;;;5017027;28;20042;-75
2022/06/26 15:35:41;;;;;;;1.88;1.67;;;44.30;42.80;;;;;;5017099;28;20035;-75
2022/06/26 15:38:06;;;;;;;1.55;1.45;;;44.30;41.70;;;;;;5016932;28;20468;-76
2022/06/26 15:40:32;;;;;;;1.50;1.40;;;44.40;41.40;;;;;;5015509;28;20034;-76
2022/06/26 15:42:58;;;;;;;1.58;1.48;;;44.10;42.60;;;;;;5016741;28;20041;-76
2022/06/26 15:45:24;;;;;;;1.52;1.40;;;44.10;42.50;;;;;;5016766;28;20038;-76
2022/06/26 15:47:49;;;;;;;1.60;1.50;;;44.40;40.40;;;;;;5015479;28;20089;-75
2022/06/26 15:50:15;;;;;;;2.95;1.40;;;44.10;42.50;;;;;;5016042;28;20034;-75
2022/06/26 15:52:40;;;;;;;1.52;1.42;;;43.80;42.60;;;;;;5016950;28;20042;-75
2022/06/26 15:55:06;;;;;;;1.60;1.50;;;44.00;42.30;;;;;;5015362;28;20046;-75
2022/06/26 15:57:32;;;;;;;1.40;1.30;;;43.70;41.90;;;;;;5016596;28;20038;-76
2022/06/26 15:59:57;;;;;;;1.80;1.40;;;43.80;42.60;;;;;;5017070;28;20472;-76
2022/06/26 16:02:23;;;;;;;2.75;1.58;;;43.70;40.90;;;;;;5017195;28;20109;-77
2022/06/26 16:04:48;;;;;;;1.40;1.30;;;44.10;41.70;;;;;;5016810;28;20050;-78
2022/06/26 16:07:14;;;;;;;1.45;1.20;;;43.40;41.30;;;;;;5015427;28;20022;-76
2022/06/26 16:09:42;;;;;;;1.30;1.23;;;41.70;42.50;;;;;;5016993;28;20038;-75
2022/06/26 16:12:09;;;;;;;2.67;1.25;;;41.00;43.50;;;;;;5016958;28;20401;-76
2022/06/26 16:14:36;;;;;;;1.83;1.40;;;40.00;49.90;;;;;;5016424;28;20520;-75
2022/06/26 16:17:01;;;;;;;1.67;1.58;;;39.50;46.90;;;;;;5016491;28;20042;-75
2022/06/26 16:19:27;;;;;;;1.58;1.48;;;39.90;47.00;;;;;;5015210;28;20068;-75
2022/06/26 16:27:21;;;;;;;1.52;1.42;;;42.50;44.40;;;;;;5016349;28;20062;-75
2022/06/26 16:29:46;;;;;;;1.58;1.48;;;42.20;43.20;;;;;;5015003;28;20043;-75
2022/06/26 16:32:12;;;;;;;1.52;1.40;;;41.00;44.70;;;;;;5016321;28;20496;-78
2022/06/26 16:34:37;;;;;;;1.77;1.65;;;40.60;44.30;;;;;;5014821;28;20464;-76
2022/06/26 16:37:04;;;;;;;2.53;1.20;;;39.10;45.90;;;;;;5015937;28;20030;-76
2022/06/26 16:39:30;;;;;;;1.88;1.23;;;37.40;50.60;;;;;;5016429;28;20122;-75
2022/06/26 16:41:56;;;;;;;1.58;1.30;;;36.60;50.20;;;;;;5016452;28;20125;-76
2022/06/26 16:44:22;;;;;;;2.42;1.38;;;35.60;54.60;;;;;;5015988;28;20399;-74
2022/06/26 16:46:47;;;;;;;1.40;1.30;;;34.90;54.90;;;;;;5014482;28;20033;-74
2022/06/26 16:49:13;;;;;;;1.60;1.20;;;34.00;57.70;;;;;;5016240;28;20082;-74
2022/06/26 16:51:38;;;;;;;2.20;1.40;;;33.60;58.90;;;;;;5016105;28;20081;-74
2022/06/26 16:54:04;;;;;;;1.58;1.48;;;33.30;60.20;;;;;;5015686;28;20057;-74
2022/06/26 16:56:29;;;;;;;1.60;1.40;;;32.80;60.80;;;;;;5016045;28;20491;-73
2022/06/26 16:58:55;;;;;;;1.70;1.48;;;32.70;59.30;;;;;;5015887;28;20038;-74
2022/06/26 17:01:20;;;;;;;2.65;1.40;;;32.30;61.20;;;;;;5015819;28;20035;-73
2022/06/26 17:03:46;;;;;;;1.77;1.45;;;32.10;66.00;;;;;;5015482;28;20071;-74
2022/06/26 17:06:12;;;;;;;2.30;1.38;;;32.00;62.10;;;;;;5014180;28;20045;-74
2022/06/26 17:08:37;;;;;;;2.22;1.65;;;31.70;62.70;;;;;;5014284;28;20034;-75